^^
Saratoga-Weather Station Historical Data
Daily Summary for May 14, 2022 Units:  Metric    English   Both
Daily Weekly Monthly Yearly Custom
  High: Low: Average:
Temperature: 24.6 °C 7.7 °C 16.6 °C
Dew Point: 11.8 °C 6.2 °C 8.9 °C
Humidity: 91% 38% 63%
Wind Speed: 9.7km/h 0km/h 1.7km/h
Wind Gust: 14.5km/h - -
Wind- - South
Pressure: 1021.3 hPa 1018.0 hPa -
Precipitation: 0.0 mm    
Historical Graphs
 
 
Tabular Data for May 14, 2022
Time Temperature Dew Point Pressure Wind Wind Speed Wind Gust Humidity Rainfall Rate (Hourly) solar
00:02 12.2 °C 7.5 °C 1020.7 hPa Calm   1.6 km/h 73% 0.0 mm 0 W/m2
00:12 12 °C 7.5 °C 1020.7 hPa Calm   3.2 km/h 74% 0.0 mm 0 W/m2
00:17 11.9 °C 7.6 °C 1020.7 hPa Calm     75% 0.0 mm 0 W/m2
00:22 11.9 °C 7.6 °C 1020.7 hPa West 3.2 km/h 3.2 km/h 75% 0.0 mm 0 W/m2
00:27 11.9 °C 7.8 °C 1020.7 hPa West 1.4 km/h 3.2 km/h 76% 0.0 mm 0 W/m2
00:32 11.9 °C 7.8 °C 1020.7 hPa Calm     76% 0.0 mm 0 W/m2
00:37 11.9 °C 7.8 °C 1020.7 hPa Calm     76% 0.0 mm 0 W/m2
00:42 11.8 °C 7.7 °C 1020.7 hPa Calm     76% 0.0 mm 0 W/m2
00:47 11.7 °C 7.6 °C 1020.7 hPa Calm     76% 0.0 mm 0 W/m2
00:52 11.6 °C 7.5 °C 1020.7 hPa Calm     76% 0.0 mm 0 W/m2
00:57 11.5 °C 7.4 °C 1020.7 hPa Calm     76% 0.0 mm 0 W/m2
01:02 11.5 °C 7.6 °C 1020.7 hPa Calm   1.6 km/h 77% 0.0 mm 0 W/m2
01:07 11.5 °C 7.6 °C 1020.7 hPa Calm   1.6 km/h 77% 0.0 mm 0 W/m2
01:12 11.5 °C 7.6 °C 1020.7 hPa West 1.4 km/h 3.2 km/h 77% 0.0 mm 0 W/m2
01:17 11.4 °C 7.5 °C 1020.7 hPa Calm   3.2 km/h 77% 0.0 mm 0 W/m2
01:22 11.4 °C 7.7 °C 1020.7 hPa Calm     78% 0.0 mm 0 W/m2
01:27 11.3 °C 7.6 °C 1020.7 hPa Calm   3.2 km/h 78% 0.0 mm 0 W/m2
01:32 11.3 °C 7.6 °C 1020.7 hPa Calm     78% 0.0 mm 0 W/m2
01:37 11.2 °C 7.7 °C 1020.7 hPa Calm     79% 0.0 mm 0 W/m2
01:42 11.1 °C 7.6 °C 1020.7 hPa Calm     79% 0.0 mm 0 W/m2
01:47 11.1 °C 7.6 °C 1020.7 hPa Calm     79% 0.0 mm 0 W/m2
01:52 10.9 °C 7.4 °C 1020.7 hPa Calm     79% 0.0 mm 0 W/m2
01:57 10.8 °C 7.3 °C 1020.7 hPa Calm     79% 0.0 mm 0 W/m2
02:02 10.7 °C 7.4 °C 1020.7 hPa Calm     80% 0.0 mm 0 W/m2
02:07 10.6 °C 7.3 °C 1020.7 hPa Calm   1.6 km/h 80% 0.0 mm 0 W/m2
02:12 10.4 °C 7.3 °C 1020.7 hPa Calm     81% 0.0 mm 0 W/m2
02:17 10.3 °C 7.2 °C 1020.7 hPa Calm   1.6 km/h 81% 0.0 mm 0 W/m2
02:22 10.2 °C 7.1 °C 1020.7 hPa Calm     81% 0.0 mm 0 W/m2
02:27 10.1 °C 7 °C 1020.7 hPa Calm     81% 0.0 mm 0 W/m2
02:32 10 °C 7.1 °C 1020.7 hPa Calm     82% 0.0 mm 0 W/m2
02:37 9.8 °C 7.1 °C 1020.7 hPa Calm     83% 0.0 mm 0 W/m2
02:42 9.8 °C 7.1 °C 1020.7 hPa Calm     83% 0.0 mm 0 W/m2
02:47 9.7 °C 7 °C 1020.7 hPa Calm     83% 0.0 mm 0 W/m2
02:52 9.6 °C 6.9 °C 1020.7 hPa Calm     83% 0.0 mm 0 W/m2
02:57 9.4 °C 6.7 °C 1020.7 hPa Calm     83% 0.0 mm 0 W/m2
03:02 9.4 °C 6.8 °C 1020.7 hPa Calm     84% 0.0 mm 0 W/m2
03:07 9.3 °C 6.7 °C 1020.7 hPa Calm     84% 0.0 mm 0 W/m2
03:12 9.2 °C 6.6 °C 1020.7 hPa Calm     84% 0.0 mm 0 W/m2
03:22 9.1 °C 6.7 °C 1020.7 hPa Calm     85% 0.0 mm 0 W/m2
03:27 9.1 °C 6.9 °C 1020.7 hPa Calm     86% 0.0 mm 0 W/m2
03:32 9.1 °C 6.9 °C 1020.7 hPa Calm     86% 0.0 mm 0 W/m2
03:37 9.2 °C 7 °C 1020.7 hPa Calm     86% 0.0 mm 0 W/m2
03:42 9.1 °C 6.7 °C 1020.7 hPa Calm     85% 0.0 mm 0 W/m2
03:47 9.1 °C 6.7 °C 1020.7 hPa Calm     85% 0.0 mm 0 W/m2
03:52 9 °C 6.6 °C 1020.7 hPa Calm     85% 0.0 mm 0 W/m2
03:57 8.9 °C 6.7 °C 1020.7 hPa Calm     86% 0.0 mm 0 W/m2
04:02 8.8 °C 6.6 °C 1020.7 hPa Calm     86% 0.0 mm 0 W/m2
04:07 8.7 °C 6.5 °C 1020.7 hPa Calm     86% 0.0 mm 0 W/m2
04:12 8.7 °C 6.7 °C 1020.7 hPa Calm     87% 0.0 mm 0 W/m2
04:17 8.6 °C 6.6 °C 1020.7 hPa Calm     87% 0.0 mm 0 W/m2
04:22 8.5 °C 6.5 °C 1020.7 hPa Calm     87% 0.0 mm 0 W/m2
04:27 8.5 °C 6.6 °C 1020.7 hPa Calm     88% 0.0 mm 0 W/m2
04:32 8.4 °C 6.5 °C 1020.7 hPa Calm     88% 0.0 mm 0 W/m2
04:37 8.4 °C 6.5 °C 1020.7 hPa Calm     88% 0.0 mm 0 W/m2
04:42 8.4 °C 6.5 °C 1020.7 hPa Calm     88% 0.0 mm 0 W/m2
04:47 8.4 °C 6.5 °C 1020.7 hPa Calm     88% 0.0 mm 0 W/m2
04:52 8.4 °C 6.5 °C 1020.7 hPa Calm     88% 0.0 mm 0 W/m2
04:57 8.3 °C 6.4 °C 1020.7 hPa Calm     88% 0.0 mm 0 W/m2
05:02 8.3 °C 6.4 °C 1020.7 hPa Calm     88% 0.0 mm 0 W/m2
05:07 8.2 °C 6.3 °C 1020.7 hPa Calm     88% 0.0 mm 0 W/m2
05:12 8.2 °C 6.5 °C 1020.7 hPa Calm     89% 0.0 mm 0 W/m2
05:17 8.2 °C 6.5 °C 1020.7 hPa Calm     89% 0.0 mm 0 W/m2
05:22 8.2 °C 6.5 °C 1020.7 hPa Calm     89% 0.0 mm 0 W/m2
05:27 8.1 °C 6.4 °C 1020.7 hPa Calm     89% 0.0 mm 0 W/m2
05:32 8 °C 6.3 °C 1020.7 hPa Calm     89% 0.0 mm 0 W/m2
05:37 8 °C 6.3 °C 1020.7 hPa Calm     89% 0.0 mm 0 W/m2
05:42 7.9 °C 6.2 °C 1020.7 hPa Calm     89% 0.0 mm 0 W/m2
05:47 7.9 °C 6.2 °C 1020.7 hPa Calm     89% 0.0 mm 0 W/m2
05:53 7.8 °C 6.3 °C 1020.7 hPa Calm     90% 0.0 mm 0 W/m2
05:58 7.8 °C 6.3 °C 1020.7 hPa Calm     90% 0.0 mm 0 W/m2
06:03 7.8 °C 6.3 °C 1021.0 hPa Calm     90% 0.0 mm 5 W/m2
06:08 7.8 °C 6.3 °C 1021.0 hPa Calm     90% 0.0 mm 9 W/m2
06:13 7.8 °C 6.3 °C 1021.0 hPa Calm     90% 0.0 mm 11 W/m2
06:18 7.8 °C 6.3 °C 1021.0 hPa Calm     90% 0.0 mm 12 W/m2
06:23 7.7 °C 6.2 °C 1021.0 hPa Calm     90% 0.0 mm 16 W/m2
06:28 7.8 °C 6.3 °C 1021.0 hPa Calm     90% 0.0 mm 18 W/m2
06:33 7.8 °C 6.3 °C 1021.0 hPa Calm     90% 0.0 mm 19 W/m2
06:38 7.8 °C 6.3 °C 1021.0 hPa Calm     90% 0.0 mm 21 W/m2
06:43 7.8 °C 6.4 °C 1021.0 hPa Calm     91% 0.0 mm 23 W/m2
06:48 7.9 °C 6.4 °C 1021.0 hPa Calm     90% 0.0 mm 25 W/m2
06:53 7.9 °C 6.4 °C 1021.0 hPa Calm     90% 0.0 mm 25 W/m2
06:58 8.1 °C 6.7 °C 1021.0 hPa Calm     91% 0.0 mm 25 W/m2
07:03 8.2 °C 6.8 °C 1021.0 hPa Calm     91% 0.0 mm 25 W/m2
07:08 8.3 °C 6.8 °C 1021.0 hPa Calm     90% 0.0 mm 26 W/m2
07:13 8.3 °C 6.8 °C 1021.0 hPa Calm     90% 0.0 mm 35 W/m2
07:18 8.5 °C 7 °C 1021.0 hPa Calm     90% 0.0 mm 81 W/m2
07:23 8.8 °C 7.4 °C 1021.0 hPa Calm     91% 0.0 mm 121 W/m2
07:28 9.5 °C 7.9 °C 1021.0 hPa Calm   1.6 km/h 90% 0.0 mm 137 W/m2
07:33 10.4 °C 8.5 °C 1021.0 hPa Calm     88% 0.0 mm 151 W/m2
07:38 11.2 °C 8.6 °C 1021.0 hPa NW 1.4 km/h 1.6 km/h 84% 0.0 mm 165 W/m2
07:43 11.8 °C 8.6 °C 1021.0 hPa NW 1.4 km/h 1.6 km/h 81% 0.0 mm 181 W/m2
07:48 12.2 °C 8.9 °C 1021.3 hPa Calm   1.6 km/h 80% 0.0 mm 195 W/m2
07:53 12.8 °C 8.9 °C 1021.3 hPa Calm     77% 0.0 mm 209 W/m2
07:58 12.8 °C 8.7 °C 1021.3 hPa Calm   1.6 km/h 76% 0.0 mm 216 W/m2
08:03 12.9 °C 8.8 °C 1021.0 hPa Calm   1.6 km/h 76% 0.0 mm 162 W/m2
08:08 13.2 °C 9.1 °C 1021.0 hPa Calm   1.6 km/h 76% 0.0 mm 81 W/m2
08:13 13.7 °C 9.3 °C 1021.0 hPa Calm     75% 0.0 mm 47 W/m2
08:18 14.2 °C 9.4 °C 1021.0 hPa Calm     73% 0.0 mm 47 W/m2
08:23 14.8 °C 9.6 °C 1021.3 hPa Calm   1.6 km/h 71% 0.0 mm 47 W/m2
08:28 15.3 °C 9.6 °C 1021.3 hPa Calm   3.2 km/h 69% 0.0 mm 47 W/m2
08:33 15.3 °C 9.4 °C 1021.3 hPa ENE 1.4 km/h 4.8 km/h 68% 0.0 mm 47 W/m2
08:38 15.1 °C 9.5 °C 1021.3 hPa NE 3.2 km/h 3.2 km/h 69% 0.0 mm 47 W/m2
08:43 15.2 °C 9.3 °C 1021.3 hPa NE 3.2 km/h 4.8 km/h 68% 0.0 mm 47 W/m2
08:48 15.2 °C 9.3 °C 1021.3 hPa ESE 3.2 km/h 4.8 km/h 68% 0.0 mm 47 W/m2
08:53 15.3 °C 9.2 °C 1021.3 hPa Calm   1.6 km/h 67% 0.0 mm 49 W/m2
08:58 15.4 °C 9.3 °C 1021.3 hPa Calm   4.8 km/h 67% 0.0 mm 47 W/m2
09:03 15.4 °C 9.3 °C 1021.3 hPa East 3.2 km/h 3.2 km/h 67% 0.0 mm 47 W/m2
09:08 15.5 °C 9.4 °C 1021.3 hPa ENE 3.2 km/h 3.2 km/h 67% 0.0 mm 47 W/m2
09:13 15.6 °C 9.5 °C 1021.3 hPa NE 3.2 km/h 4.8 km/h 67% 0.0 mm 47 W/m2
09:18 15.7 °C 9.6 °C 1021.3 hPa East 1.4 km/h 4.8 km/h 67% 0.0 mm 49 W/m2
09:23 15.9 °C 9.6 °C 1021.3 hPa ESE 1.4 km/h 3.2 km/h 66% 0.0 mm 49 W/m2
09:28 16.1 °C 9.3 °C 1021.3 hPa Calm   4.8 km/h 64% 0.0 mm 49 W/m2
09:33 16.2 °C 9.6 °C 1021.3 hPa SE 1.4 km/h 4.8 km/h 65% 0.0 mm 51 W/m2
09:38 16.3 °C 9.5 °C 1021.3 hPa ESE 1.4 km/h 4.8 km/h 64% 0.0 mm 51 W/m2
09:43 16.4 °C 9.8 °C 1021.3 hPa WNW 3.2 km/h 4.8 km/h 65% 0.0 mm 53 W/m2
09:48 16.4 °C 9.8 °C 1021.3 hPa ENE 3.2 km/h 4.8 km/h 65% 0.0 mm 53 W/m2
09:53 16.5 °C 10.1 °C 1021.3 hPa ENE 4.7 km/h 6.4 km/h 66% 0.0 mm 54 W/m2
09:58 16.7 °C 10.1 °C 1021.3 hPa East 3.2 km/h 6.4 km/h 65% 0.0 mm 111 W/m2
10:03 16.9 °C 10 °C 1021.3 hPa ENE 4.7 km/h 4.8 km/h 64% 0.0 mm 494 W/m2
10:08 17 °C 9.7 °C 1021.3 hPa ESE 3.2 km/h 6.4 km/h 62% 0.0 mm 577 W/m2
10:13 17.2 °C 10.3 °C 1021.3 hPa East 7.9 km/h 8 km/h 64% 0.0 mm 591 W/m2
10:18 17.3 °C 9.9 °C 1021.3 hPa East 1.4 km/h 4.8 km/h 62% 0.0 mm 603 W/m2
10:23 17.6 °C 10 °C 1021.3 hPa Calm   1.6 km/h 61% 0.0 mm 619 W/m2
10:28 17.7 °C 10.1 °C 1021.3 hPa East 4.7 km/h 6.4 km/h 61% 0.0 mm 635 W/m2
10:33 17.8 °C 10.2 °C 1021.3 hPa East 3.2 km/h 3.2 km/h 61% 0.0 mm 650 W/m2
10:38 18.1 °C 10.2 °C 1021.3 hPa East 1.4 km/h 4.8 km/h 60% 0.0 mm 657 W/m2
10:43 18.2 °C 9.8 °C 1021.3 hPa East 1.4 km/h 4.8 km/h 58% 0.0 mm 643 W/m2
10:48 18.3 °C 10.1 °C 1021.3 hPa East 3.2 km/h 6.4 km/h 59% 0.0 mm 626 W/m2
10:53 18.4 °C 10 °C 1021.3 hPa ESE 1.4 km/h 6.4 km/h 58% 0.0 mm 682 W/m2
10:58 18.7 °C 10.3 °C 1021.0 hPa NNE 1.4 km/h 3.2 km/h 58% 0.0 mm 707 W/m2
11:03 18.6 °C 9.9 °C 1021.3 hPa North 1.4 km/h 9.7 km/h 57% 0.0 mm 701 W/m2
11:08 18.7 °C 10.3 °C 1021.3 hPa East 3.2 km/h 4.8 km/h 58% 0.0 mm 722 W/m2
11:13 18.9 °C 10.2 °C 1021.0 hPa WNW 3.2 km/h 9.7 km/h 57% 0.0 mm 729 W/m2
11:18 18.8 °C 10.1 °C 1021.3 hPa ENE 3.2 km/h 9.7 km/h 57% 0.0 mm 740 W/m2
11:23 18.8 °C 9.8 °C 1021.3 hPa NE 3.2 km/h 6.4 km/h 56% 0.0 mm 756 W/m2
11:28 19 °C 10.5 °C 1021.3 hPa ENE 7.9 km/h 9.7 km/h 58% 0.0 mm 768 W/m2
11:33 19.1 °C 10.4 °C 1021.0 hPa ENE 4.7 km/h 11.3 km/h 57% 0.0 mm 700 W/m2
11:38 19.2 °C 10.5 °C 1021.0 hPa ESE 3.2 km/h 6.4 km/h 57% 0.0 mm 770 W/m2
11:43 19.3 °C 10.3 °C 1021.0 hPa ENE 3.2 km/h 9.7 km/h 56% 0.0 mm 789 W/m2
11:48 19.4 °C 10.4 °C 1021.0 hPa East 1.4 km/h 6.4 km/h 56% 0.0 mm 791 W/m2
11:53 19.4 °C 10.4 °C 1021.0 hPa ENE 4.7 km/h 8 km/h 56% 0.0 mm 795 W/m2
11:58 19.4 °C 10.1 °C 1021.0 hPa East 1.4 km/h 6.4 km/h 55% 0.0 mm 805 W/m2
12:03 19.4 °C 10.1 °C 1021.0 hPa ENE 4.7 km/h 8 km/h 55% 0.0 mm 780 W/m2
12:08 19.6 °C 10.6 °C 1021.0 hPa North 6.4 km/h 8 km/h 56% 0.0 mm 823 W/m2
12:13 19.8 °C 10.5 °C 1021.0 hPa NE 3.2 km/h 6.4 km/h 55% 0.0 mm 819 W/m2
12:18 20.2 °C 10 °C 1020.7 hPa WNW 6.4 km/h 12.9 km/h 52% 0.0 mm 817 W/m2
12:23 20.2 °C 9.7 °C 1020.7 hPa West 4.7 km/h 8 km/h 51% 0.0 mm 840 W/m2
12:28 20.3 °C 9.8 °C 1020.7 hPa West 1.4 km/h 12.9 km/h 51% 0.0 mm 828 W/m2
12:33 20.1 °C 9.9 °C 1020.7 hPa NW 4.7 km/h 6.4 km/h 52% 0.0 mm 860 W/m2
12:38 20.1 °C 9.6 °C 1020.7 hPa WNW 3.2 km/h 3.2 km/h 51% 0.0 mm 842 W/m2
12:43 20.3 °C 9.5 °C 1020.7 hPa WNW 3.2 km/h 6.4 km/h 50% 0.0 mm 823 W/m2
12:48 20.6 °C 9.5 °C 1020.7 hPa West 9.7 km/h 9.7 km/h 49% 0.0 mm 861 W/m2
12:53 20.7 °C 9.3 °C 1020.7 hPa North 9.7 km/h 9.7 km/h 48% 0.0 mm 868 W/m2
12:58 20.8 °C 9.1 °C 1020.7 hPa NNW 1.4 km/h 3.2 km/h 47% 0.0 mm 865 W/m2
13:03 21 °C 10.2 °C 1020.7 hPa SSW 1.4 km/h 3.2 km/h 50% 0.0 mm 886 W/m2
13:08 21.2 °C 9.4 °C 1020.7 hPa WSW 7.9 km/h 9.7 km/h 47% 0.0 mm 904 W/m2
13:13 21.3 °C 9.2 °C 1020.7 hPa NW 4.7 km/h 14.5 km/h 46% 0.0 mm 835 W/m2
13:18 21.3 °C 9.5 °C 1020.7 hPa NW 4.7 km/h 12.9 km/h 47% 0.0 mm 856 W/m2
13:23 21.2 °C 9.4 °C 1020.7 hPa NNW 6.4 km/h 14.5 km/h 47% 0.0 mm 835 W/m2
13:28 20.9 °C 8.8 °C 1020.3 hPa NNW 1.4 km/h 6.4 km/h 46% 0.0 mm 835 W/m2
13:33 21.3 °C 8.9 °C 1020.3 hPa NW 7.9 km/h 11.3 km/h 45% 0.0 mm 889 W/m2
13:39 21.4 °C 9.3 °C 1020.3 hPa NW 4.7 km/h 4.8 km/h 46% 0.0 mm 914 W/m2
13:44 21.4 °C 9.3 °C 1020.3 hPa West 3.2 km/h 6.4 km/h 46% 0.0 mm 884 W/m2
13:49 21.5 °C 9.4 °C 1020.3 hPa WSW 4.7 km/h 8 km/h 46% 0.0 mm 881 W/m2
13:54 21.8 °C 9.7 °C 1020.3 hPa South 1.4 km/h 3.2 km/h 46% 0.0 mm 791 W/m2
13:59 22 °C 9.8 °C 1020.3 hPa WNW 6.4 km/h 6.4 km/h 46% 0.0 mm 846 W/m2
14:04 21.9 °C 10.4 °C 1020.0 hPa East 6.4 km/h 8 km/h 48% 0.0 mm 809 W/m2
14:09 22.1 °C 10.3 °C 1020.0 hPa ESE 4.7 km/h 6.4 km/h 47% 0.0 mm 833 W/m2
14:14 22.2 °C 9.7 °C 1020.0 hPa East 4.7 km/h 9.7 km/h 45% 0.0 mm 766 W/m2
14:19 22 °C 9.8 °C 1020.0 hPa ENE 3.2 km/h 9.7 km/h 46% 0.0 mm 812 W/m2
14:24 21.8 °C 9.7 °C 1020.0 hPa ENE 3.2 km/h 4.8 km/h 46% 0.0 mm 809 W/m2
14:29 21.9 °C 9.4 °C 1020.0 hPa NNW 1.4 km/h 11.3 km/h 45% 0.0 mm 765 W/m2
14:34 22.2 °C 9.7 °C 1020.0 hPa NW 3.2 km/h 11.3 km/h 45% 0.0 mm 858 W/m2
14:39 22.3 °C 10.1 °C 1020.0 hPa NW 1.4 km/h 6.4 km/h 46% 0.0 mm 911 W/m2
14:44 22.6 °C 10.4 °C 1020.0 hPa West 9.7 km/h 12.9 km/h 46% 0.0 mm 826 W/m2
14:49 22.4 °C 9.9 °C 1019.6 hPa NW 3.2 km/h 9.7 km/h 45% 0.0 mm 805 W/m2
14:54 22.2 °C 9.7 °C 1019.6 hPa NW 3.2 km/h 8 km/h 45% 0.0 mm 789 W/m2
14:59 22.3 °C 10.1 °C 1019.6 hPa WSW 6.4 km/h 9.7 km/h 46% 0.0 mm 802 W/m2
15:04 22.4 °C 9.9 °C 1019.6 hPa Calm   4.8 km/h 45% 0.0 mm 800 W/m2
15:09 22.7 °C 10.5 °C 1019.6 hPa Calm   4.8 km/h 46% 0.0 mm 796 W/m2
15:14 22.8 °C 10.6 °C 1019.6 hPa NW 6.4 km/h 11.3 km/h 46% 0.0 mm 756 W/m2
15:19 22.6 °C 10.1 °C 1019.6 hPa WSW 1.4 km/h 3.2 km/h 45% 0.0 mm 831 W/m2
15:24 22.7 °C 10.5 °C 1019.6 hPa ESE 3.2 km/h 4.8 km/h 46% 0.0 mm 809 W/m2
15:29 23.1 °C 10.5 °C 1019.3 hPa West 4.7 km/h 12.9 km/h 45% 0.0 mm 772 W/m2
15:34 23.1 °C 10.2 °C 1019.3 hPa WNW 7.9 km/h 14.5 km/h 44% 0.0 mm 677 W/m2
15:39 23 °C 10.4 °C 1019.3 hPa West 4.7 km/h 6.4 km/h 45% 0.0 mm 689 W/m2
15:44 23.1 °C 10.5 °C 1019.3 hPa ESE 3.2 km/h 6.4 km/h 45% 0.0 mm 707 W/m2
15:49 23.2 °C 10.3 °C 1019.3 hPa WSW 6.4 km/h 6.4 km/h 44% 0.0 mm 682 W/m2
15:54 23.2 °C 10.3 °C 1019.3 hPa WSW 3.2 km/h 6.4 km/h 44% 0.0 mm 761 W/m2
15:59 23.3 °C 9.7 °C 1019.3 hPa WNW 3.2 km/h 6.4 km/h 42% 0.0 mm 677 W/m2
16:04 23.3 °C 10.7 °C 1019.0 hPa ESE 4.7 km/h 4.8 km/h 45% 0.0 mm 656 W/m2
16:09 23.4 °C 10.1 °C 1019.0 hPa WSW 3.2 km/h 6.4 km/h 43% 0.0 mm 617 W/m2
16:19 23.2 °C 9.9 °C 1019.0 hPa West 4.7 km/h 6.4 km/h 43% 0.0 mm 563 W/m2
16:24 23.2 °C 9.6 °C 1019.0 hPa ESE 3.2 km/h 4.8 km/h 42% 0.0 mm 696 W/m2
16:29 23.1 °C 9.8 °C 1019.0 hPa West 1.4 km/h 8 km/h 43% 0.0 mm 615 W/m2
16:34 23.2 °C 9.6 °C 1019.0 hPa ESE 3.2 km/h 3.2 km/h 42% 0.0 mm 633 W/m2
16:39 23.3 °C 10.4 °C 1019.0 hPa West 9.7 km/h 9.7 km/h 44% 0.0 mm 657 W/m2
16:44 23.6 °C 10.6 °C 1019.0 hPa South 1.4 km/h 4.8 km/h 44% 0.0 mm 649 W/m2
16:49 23.8 °C 10.1 °C 1019.0 hPa NW 1.4 km/h 4.8 km/h 42% 0.0 mm 647 W/m2
16:54 23.9 °C 9.8 °C 1018.6 hPa West 1.4 km/h 4.8 km/h 41% 0.0 mm 643 W/m2
16:59 24.1 °C 9.7 °C 1018.6 hPa NNW 9.7 km/h 9.7 km/h 40% 0.0 mm 645 W/m2
17:04 23.9 °C 9.5 °C 1018.6 hPa NNW 3.2 km/h 6.4 km/h 40% 0.0 mm 606 W/m2
17:09 23.8 °C 9.4 °C 1018.6 hPa North 3.2 km/h 4.8 km/h 40% 0.0 mm 622 W/m2
17:14 23.9 °C 10.2 °C 1018.3 hPa West 4.7 km/h 9.7 km/h 42% 0.0 mm 568 W/m2
17:19 24 °C 9.6 °C 1018.6 hPa NE 3.2 km/h 6.4 km/h 40% 0.0 mm 526 W/m2
17:24 23.8 °C 9.8 °C 1018.3 hPa NE 1.4 km/h 9.7 km/h 41% 0.0 mm 531 W/m2
17:29 24.1 °C 9.7 °C 1018.6 hPa Calm   4.8 km/h 40% 0.0 mm 512 W/m2
17:34 24.3 °C 9.8 °C 1018.6 hPa NNW 1.4 km/h 1.6 km/h 40% 0.0 mm 520 W/m2
17:39 24.6 °C 9.3 °C 1018.3 hPa ENE 4.7 km/h 4.8 km/h 38% 0.0 mm 455 W/m2
17:44 24.4 °C 9.5 °C 1018.3 hPa West 4.7 km/h 6.4 km/h 39% 0.0 mm 512 W/m2
17:49 24.3 °C 9.5 °C 1018.3 hPa NE 1.4 km/h 3.2 km/h 39% 0.0 mm 533 W/m2
17:54 24.4 °C 9.5 °C 1018.3 hPa West 4.7 km/h 6.4 km/h 39% 0.0 mm 394 W/m2
17:59 24.2 °C 9.4 °C 1018.3 hPa West 3.2 km/h 4.8 km/h 39% 0.0 mm 429 W/m2
18:04 24.1 °C 9.7 °C 1018.3 hPa NW 1.4 km/h 6.4 km/h 40% 0.0 mm 436 W/m2
18:09 24.2 °C 9.7 °C 1018.3 hPa North 4.7 km/h 6.4 km/h 40% 0.0 mm 452 W/m2
18:14 24.2 °C 9.4 °C 1018.3 hPa West 1.4 km/h 3.2 km/h 39% 0.0 mm 355 W/m2
18:19 24.2 °C 9.7 °C 1018.3 hPa ENE 1.4 km/h 4.8 km/h 40% 0.0 mm 283 W/m2
18:24 24.2 °C 9.7 °C 1018.0 hPa NE 1.4 km/h 6.4 km/h 40% 0.0 mm 295 W/m2
18:29 24.1 °C 10.4 °C 1018.0 hPa ENE 1.4 km/h 3.2 km/h 42% 0.0 mm 336 W/m2
18:34 24.1 °C 10 °C 1018.0 hPa SE 1.4 km/h 4.8 km/h 41% 0.0 mm 281 W/m2
18:39 24.1 °C 9.7 °C 1018.0 hPa NNW 4.7 km/h 4.8 km/h 40% 0.0 mm 178 W/m2
18:44 24 °C 9.2 °C 1018.0 hPa WNW 1.4 km/h 8 km/h 39% 0.0 mm 120 W/m2
18:49 24 °C 9.6 °C 1018.0 hPa ESE 1.4 km/h 4.8 km/h 40% 0.0 mm 125 W/m2
18:54 24.2 °C 9.7 °C 1018.0 hPa SE 4.7 km/h 4.8 km/h 40% 0.0 mm 116 W/m2
18:59 24.2 °C 9.4 °C 1018.0 hPa East 3.2 km/h 4.8 km/h 39% 0.0 mm 104 W/m2
19:04 24.1 °C 9.3 °C 1018.0 hPa East 1.4 km/h 6.4 km/h 39% 0.0 mm 98 W/m2
19:09 23.9 °C 9.5 °C 1018.0 hPa NE 4.7 km/h 4.8 km/h 40% 0.0 mm 86 W/m2
19:14 23.9 °C 9.8 °C 1018.0 hPa Calm   3.2 km/h 41% 0.0 mm 74 W/m2
19:19 23.9 °C 9.5 °C 1018.0 hPa Calm   4.8 km/h 40% 0.0 mm 76 W/m2
19:24 24 °C 9.6 °C 1018.0 hPa Calm   1.6 km/h 40% 0.0 mm 69 W/m2
19:29 24 °C 10.3 °C 1018.0 hPa NE 3.2 km/h 4.8 km/h 42% 0.0 mm 69 W/m2
19:34 23.8 °C 10.1 °C 1018.0 hPa WNW 3.2 km/h 6.4 km/h 42% 0.0 mm 67 W/m2
19:39 23.7 °C 10.4 °C 1018.0 hPa NE 6.4 km/h 6.4 km/h 43% 0.0 mm 69 W/m2
19:44 23.6 °C 10.3 °C 1018.0 hPa Calm   1.6 km/h 43% 0.0 mm 62 W/m2
19:49 23.5 °C 10.5 °C 1018.0 hPa Calm   1.6 km/h 44% 0.0 mm 53 W/m2
19:54 23.3 °C 10.4 °C 1018.0 hPa East 1.4 km/h 3.2 km/h 44% 0.0 mm 47 W/m2
19:59 23.1 °C 10.5 °C 1018.0 hPa West 3.2 km/h 4.8 km/h 45% 0.0 mm 46 W/m2
20:04 22.8 °C 10.6 °C 1018.0 hPa WSW 1.4 km/h 1.6 km/h 46% 0.0 mm 47 W/m2
20:09 22.6 °C 11.6 °C 1018.0 hPa WSW 1.4 km/h 4.8 km/h 50% 0.0 mm 40 W/m2
20:14 22.4 °C 11.8 °C 1018.0 hPa Calm   3.2 km/h 51% 0.0 mm 37 W/m2
20:19 22.1 °C 11.8 °C 1018.0 hPa Calm   1.6 km/h 52% 0.0 mm 35 W/m2
20:24 21.8 °C 11.8 °C 1018.0 hPa WSW 3.2 km/h 3.2 km/h 53% 0.0 mm 35 W/m2
20:29 21.5 °C 11.8 °C 1018.0 hPa WSW 1.4 km/h 3.2 km/h 54% 0.0 mm 35 W/m2
20:34 21.2 °C 11.5 °C 1018.0 hPa WSW 1.4 km/h 1.6 km/h 54% 0.0 mm 35 W/m2
20:39 21 °C 11.3 °C 1018.0 hPa Calm     54% 0.0 mm 32 W/m2
20:44 20.8 °C 11.2 °C 1018.0 hPa Calm     54% 0.0 mm 28 W/m2
20:50 20.6 °C 11 °C 1018.0 hPa Calm     54% 0.0 mm 25 W/m2
20:55 20.3 °C 10.7 °C 1018.0 hPa Calm   1.6 km/h 54% 0.0 mm 19 W/m2
21:00 20.1 °C 10.5 °C 1018.0 hPa Calm     54% 0.0 mm 14 W/m2
21:05 19.8 °C 10.2 °C 1018.0 hPa WSW 1.4 km/h 3.2 km/h 54% 0.0 mm 11 W/m2
21:10 19.5 °C 10.5 °C 1018.0 hPa WSW 1.4 km/h 3.2 km/h 56% 0.0 mm 7 W/m2
21:15 19.3 °C 10.3 °C 1018.0 hPa Calm     56% 0.0 mm 5 W/m2
21:20 19 °C 10 °C 1018.0 hPa Calm   3.2 km/h 56% 0.0 mm 0 W/m2
21:25 18.7 °C 10 °C 1018.0 hPa Calm     57% 0.0 mm 0 W/m2
21:30 18.4 °C 10 °C 1018.0 hPa Calm     58% 0.0 mm 0 W/m2
21:35 18.2 °C 10.1 °C 1018.0 hPa Calm     59% 0.0 mm 0 W/m2
21:40 17.9 °C 10 °C 1018.0 hPa Calm     60% 0.0 mm 0 W/m2
21:45 17.7 °C 10.1 °C 1018.0 hPa Calm     61% 0.0 mm 0 W/m2
21:50 17.4 °C 9.8 °C 1018.3 hPa Calm     61% 0.0 mm 0 W/m2
21:55 17.2 °C 9.6 °C 1018.3 hPa Calm     61% 0.0 mm 0 W/m2
22:00 17 °C 9.7 °C 1018.3 hPa Calm     62% 0.0 mm 0 W/m2
22:05 16.8 °C 9.7 °C 1018.3 hPa Calm     63% 0.0 mm 0 W/m2
22:10 16.7 °C 9.6 °C 1018.3 hPa Calm     63% 0.0 mm 0 W/m2
22:15 16.6 °C 9.8 °C 1018.3 hPa Calm     64% 0.0 mm 0 W/m2
22:20 16.4 °C 9.6 °C 1018.3 hPa Calm     64% 0.0 mm 0 W/m2
22:25 16.3 °C 9.7 °C 1018.3 hPa Calm     65% 0.0 mm 0 W/m2
22:30 16.2 °C 9.6 °C 1018.3 hPa Calm     65% 0.0 mm 0 W/m2
22:35 16.1 °C 9.5 °C 1018.3 hPa Calm     65% 0.0 mm 0 W/m2
22:40 15.9 °C 9.6 °C 1018.3 hPa Calm     66% 0.0 mm 0 W/m2
22:50 15.7 °C 9.6 °C 1018.3 hPa Calm     67% 0.0 mm 0 W/m2
22:55 15.6 °C 9.3 °C 1018.3 hPa Calm     66% 0.0 mm 0 W/m2
23:00 15.6 °C 9.5 °C 1018.3 hPa Calm     67% 0.0 mm 0 W/m2
23:05 15.6 °C 9.5 °C 1018.3 hPa Calm     67% 0.0 mm 0 W/m2
23:10 15.4 °C 9.3 °C 1018.3 hPa Calm     67% 0.0 mm 0 W/m2
23:15 15.3 °C 9.2 °C 1018.3 hPa Calm     67% 0.0 mm 0 W/m2
23:20 15.2 °C 9.3 °C 1018.3 hPa Calm     68% 0.0 mm 0 W/m2
23:25 15.1 °C 9.2 °C 1018.3 hPa Calm     68% 0.0 mm 0 W/m2
23:30 15 °C 9.1 °C 1018.3 hPa Calm     68% 0.0 mm 0 W/m2
23:35 14.8 °C 9.2 °C 1018.3 hPa Calm     69% 0.0 mm 0 W/m2
23:40 14.8 °C 9.4 °C 1018.3 hPa Calm     70% 0.0 mm 0 W/m2
23:45 14.7 °C 9.7 °C 1018.3 hPa Calm     72% 0.0 mm 0 W/m2
23:50 14.6 °C 9.6 °C 1018.3 hPa Calm     72% 0.0 mm 0 W/m2
23:55 14.4 °C 9.4 °C 1018.0 hPa Calm     72% 0.0 mm 0 W/m2
Juneau County Weather
Compliments of Weather Underground - 4 mb